Time;durP1;ratioP1;P1;durP2;ratioP2;P2;SDS_P1;SDS_P2;PMS_P1;PMS_P2;Temp;Humidity;BMP_temperature;BMP_pressure;BME280_temperature;BME280_humidity;BME280_pressure;Samples;Min_cycle;Max_cycle;Signal;HPM_P1;HPM_P2
2022/05/07 00:01:20;;;;;;;17.33;12.55;;;;;;;;;;5031032;28;93991;-74
2022/05/07 00:03:46;;;;;;;14.98;12.70;;;;;;;;;;5030802;28;94295;-74
2022/05/07 00:06:13;;;;;;;17.00;12.73;;;;;;;;;;5023636;28;92471;-74
2022/05/07 00:08:40;;;;;;;14.98;12.25;;;;;;;;;;5010692;28;93778;-74
2022/05/07 00:11:06;;;;;;;15.00;13.20;;;;;;;;;;5009953;28;92900;-74
2022/05/07 00:13:32;;;;;;;15.20;13.23;;;;;;;;;;5013472;28;92511;-74
2022/05/07 00:18:44;;;;;;;14.43;12.80;;;;;;;;;;5008806;28;94924;-74
2022/05/07 00:21:10;;;;;;;14.27;12.88;;;;;;;;;;5011027;28;97048;-75
2022/05/07 00:23:37;;;;;;;14.30;12.25;;;;;;;;;;5022451;28;94844;-74
2022/05/07 00:26:04;;;;;;;19.60;12.43;;;;;;;;;;5029400;28;92531;-74
2022/05/07 00:28:31;;;;;;;14.88;12.57;;;;;;;;;;5030387;28;93223;-74
2022/05/07 00:30:57;;;;;;;15.90;12.70;;;;;;;;;;5033172;27;94455;-74
2022/05/07 00:33:24;;;;;;;14.18;12.32;;;;;;;;;;5034076;28;92944;-74
2022/05/07 00:35:50;;;;;;;14.73;11.95;;;;;;;;;;5016311;28;94687;-74
2022/05/07 00:38:16;;;;;;;15.30;12.75;;;;;;;;;;5013872;28;92504;-74
2022/05/07 00:40:43;;;;;;;17.63;12.48;;;;;;;;;;5013662;28;94110;-74
2022/05/07 00:43:12;;;;;;;19.90;12.88;;;;;;;;;;5012690;28;95337;-74
2022/05/07 00:45:39;;;;;;;14.40;12.18;;;;;;;;;;4994814;28;93597;-74
2022/05/07 00:48:05;;;;;;;13.25;12.10;;;;;;;;;;5033261;28;93156;-74
2022/05/07 00:53:17;;;;;;;13.75;12.50;;;;;;;;;;5031399;28;92748;-74
2022/05/07 00:55:44;;;;;;;17.33;13.52;;;;;;;;;;5031608;27;93235;-74
2022/05/07 00:58:11;;;;;;;14.20;12.68;;;;;;;;;;4998515;28;94346;-74
2022/05/07 01:00:37;;;;;;;15.45;13.95;;;;;;;;;;5013742;28;91741;-74
2022/05/07 01:03:04;;;;;;;13.35;12.13;;;;;;;;;;5011615;28;95215;-74
2022/05/07 01:05:31;;;;;;;15.48;14.18;;;;;;;;;;4995928;28;93092;-74
2022/05/07 01:07:59;;;;;;;15.77;14.13;;;;;;;;;;5012556;28;95522;-75
2022/05/07 01:10:25;;;;;;;16.02;14.43;;;;;;;;;;5002027;28;96100;-74
2022/05/07 01:12:53;;;;;;;18.77;14.02;;;;;;;;;;5008124;28;92966;-74
2022/05/07 01:15:20;;;;;;;15.60;14.00;;;;;;;;;;5014826;28;93138;-74
2022/05/07 01:17:46;;;;;;;19.20;15.07;;;;;;;;;;4996998;28;95004;-74
2022/05/07 01:20:14;;;;;;;16.38;14.77;;;;;;;;;;5032064;27;92653;-74
2022/05/07 01:22:44;;;;;;;16.73;15.00;;;;;;;;;;4994391;28;95796;-74
2022/05/07 01:25:13;;;;;;;16.73;15.07;;;;;;;;;;5005460;28;92245;-75
2022/05/07 01:27:40;;;;;;;18.92;15.82;;;;;;;;;;5009351;28;92498;-75
2022/05/07 01:30:07;;;;;;;16.77;15.30;;;;;;;;;;4995434;28;96082;-74
2022/05/07 01:32:35;;;;;;;17.52;15.63;;;;;;;;;;4993846;28;94947;-74
2022/05/07 01:35:02;;;;;;;19.67;15.45;;;;;;;;;;4994667;28;97256;-75
2022/05/07 01:37:29;;;;;;;17.30;15.20;;;;;;;;;;5008711;28;95024;-75
2022/05/07 01:39:56;;;;;;;19.77;16.65;;;;;;;;;;5018657;28;93903;-75
2022/05/07 01:42:22;;;;;;;19.30;16.42;;;;;;;;;;5013945;28;95740;-74
2022/05/07 01:44:49;;;;;;;18.55;16.65;;;;;;;;;;5015375;28;92502;-75
2022/05/07 01:50:02;;;;;;;18.02;16.13;;;;;;;;;;5011932;28;94675;-75
2022/05/07 01:52:30;;;;;;;22.98;17.33;;;;;;;;;;4994912;28;92754;-75
2022/05/07 01:54:57;;;;;;;18.88;17.00;;;;;;;;;;4995125;28;93504;-75
2022/05/07 01:57:24;;;;;;;17.88;16.17;;;;;;;;;;5001415;28;97569;-75
2022/05/07 01:59:55;;;;;;;17.73;16.00;;;;;;;;;;5015213;28;92680;-75
2022/05/07 02:02:22;;;;;;;21.40;17.40;;;;;;;;;;5017834;28;92916;-74
2022/05/07 02:04:48;;;;;;;18.50;16.35;;;;;;;;;;5032855;28;92510;-75
2022/05/07 02:07:20;;;;;;;18.85;16.20;;;;;;;;;;5002161;28;95064;-75
2022/05/07 02:09:47;;;;;;;18.58;16.42;;;;;;;;;;4994037;28;95218;-75
2022/05/07 02:12:13;;;;;;;18.80;16.85;;;;;;;;;;4995066;28;92542;-75
2022/05/07 02:14:43;;;;;;;18.70;15.75;;;;;;;;;;4995289;28;95669;-75
2022/05/07 02:17:10;;;;;;;19.05;16.35;;;;;;;;;;5010139;28;93060;-75
2022/05/07 02:19:36;;;;;;;25.65;15.93;;;;;;;;;;4994072;28;92578;-74
2022/05/07 02:22:03;;;;;;;18.50;15.32;;;;;;;;;;5011207;28;95023;-74
2022/05/07 02:24:30;;;;;;;17.58;15.98;;;;;;;;;;4997888;28;95126;-74
2022/05/07 02:26:56;;;;;;;17.63;15.93;;;;;;;;;;5012928;28;92729;-75
2022/05/07 02:29:23;;;;;;;17.90;15.45;;;;;;;;;;5011015;28;95488;-75
2022/05/07 02:32:06;;;;;;;18.20;16.50;;;;;;;;;;4994084;28;92477;-75
2022/05/07 02:34:37;;;;;;;18.85;16.90;;;;;;;;;;4994011;28;94097;-74
2022/05/07 02:37:08;;;;;;;17.27;15.52;;;;;;;;;;4994150;28;94078;-74
2022/05/07 02:39:35;;;;;;;17.23;15.45;;;;;;;;;;4993943;28;91811;-75
2022/05/07 02:44:47;;;;;;;18.42;15.48;;;;;;;;;;4993645;28;95969;-74
2022/05/07 02:47:13;;;;;;;17.38;15.65;;;;;;;;;;5013661;28;94875;-74
2022/05/07 02:49:40;;;;;;;16.95;15.35;;;;;;;;;;5011552;28;92405;-75
2022/05/07 02:52:09;;;;;;;17.38;15.68;;;;;;;;;;5025093;28;92607;-74
2022/05/07 02:54:37;;;;;;;18.30;16.10;;;;;;;;;;4993769;28;95384;-74
2022/05/07 02:57:03;;;;;;;17.77;15.77;;;;;;;;;;4993623;28;93179;-74
2022/05/07 02:59:31;;;;;;;21.42;16.98;;;;;;;;;;4993618;28;92955;-74
2022/05/07 03:01:58;;;;;;;17.10;15.40;;;;;;;;;;4994099;28;93177;-74
2022/05/07 03:04:25;;;;;;;19.52;16.65;;;;;;;;;;4994339;28;95117;-74
2022/05/07 03:06:51;;;;;;;17.90;16.23;;;;;;;;;;4992591;28;92853;-75
2022/05/07 03:09:18;;;;;;;18.23;15.75;;;;;;;;;;5030426;27;92916;-75
2022/05/07 03:11:45;;;;;;;16.90;14.95;;;;;;;;;;5010254;28;94871;-74
2022/05/07 03:14:18;;;;;;;16.30;14.65;;;;;;;;;;5010734;28;96736;-75
2022/05/07 03:16:46;;;;;;;19.60;15.05;;;;;;;;;;4993557;28;95780;-75
2022/05/07 03:19:13;;;;;;;17.13;14.68;;;;;;;;;;5012110;28;92617;-74
2022/05/07 03:21:40;;;;;;;17.85;15.23;;;;;;;;;;4992946;28;93203;-74
2022/05/07 03:24:07;;;;;;;17.20;15.07;;;;;;;;;;4993997;28;93271;-75
2022/05/07 03:26:34;;;;;;;16.25;14.55;;;;;;;;;;5003970;28;94978;-75
2022/05/07 03:29:01;;;;;;;16.27;14.18;;;;;;;;;;5016579;28;95964;-75
2022/05/07 03:31:27;;;;;;;19.98;15.95;;;;;;;;;;5001457;28;93382;-74
2022/05/07 03:33:54;;;;;;;15.15;13.52;;;;;;;;;;4993961;28;94824;-74
2022/05/07 03:36:26;;;;;;;16.63;14.82;;;;;;;;;;5008290;28;97277;-74
2022/05/07 03:38:52;;;;;;;15.57;13.98;;;;;;;;;;5011907;28;92590;-74
2022/05/07 03:41:23;;;;;;;17.48;14.18;;;;;;;;;;4992586;28;94251;-75
2022/05/07 03:43:50;;;;;;;17.17;14.70;;;;;;;;;;5006953;28;96150;-74
2022/05/07 03:46:17;;;;;;;16.35;14.02;;;;;;;;;;5010961;28;92478;-74
2022/05/07 03:48:55;;;;;;;16.95;14.18;;;;;;;;;;4992807;28;95508;-74
2022/05/07 03:51:21;;;;;;;18.60;14.20;;;;;;;;;;4996326;28;94129;-74
2022/05/07 03:53:53;;;;;;;15.63;14.03;;;;;;;;;;5027123;28;95272;-76
2022/05/07 03:56:21;;;;;;;14.98;13.57;;;;;;;;;;4992379;28;95708;-74
2022/05/07 03:58:48;;;;;;;15.40;13.68;;;;;;;;;;4993091;28;92549;-75
2022/05/07 04:01:26;;;;;;;15.32;13.65;;;;;;;;;;5002175;28;94940;-75
2022/05/07 04:03:52;;;;;;;22.65;14.50;;;;;;;;;;5015079;28;92936;-75
2022/05/07 04:06:19;;;;;;;16.40;12.85;;;;;;;;;;4995898;28;93028;-74
2022/05/07 04:08:46;;;;;;;17.83;12.18;;;;;;;;;;4997029;28;95473;-75
2022/05/07 04:11:13;;;;;;;17.52;12.60;;;;;;;;;;5015606;28;95181;-75
2022/05/07 04:13:40;;;;;;;14.15;11.27;;;;;;;;;;5019562;28;92881;-74
2022/05/07 04:16:06;;;;;;;17.75;11.82;;;;;;;;;;5021024;28;93489;-74
2022/05/07 04:18:41;;;;;;;16.65;10.73;;;;;;;;;;4996986;28;92343;-75
2022/05/07 04:21:12;;;;;;;15.15;10.45;;;;;;;;;;5016855;28;94463;-75
2022/05/07 04:23:39;;;;;;;15.38;11.25;;;;;;;;;;5010123;28;96226;-75
2022/05/07 04:26:05;;;;;;;16.90;10.88;;;;;;;;;;5013223;28;94981;-75
2022/05/07 04:28:39;;;;;;;16.33;10.88;;;;;;;;;;5012841;28;96421;-75
2022/05/07 04:31:06;;;;;;;15.57;10.18;;;;;;;;;;4994821;28;96531;-75
2022/05/07 04:33:34;;;;;;;11.38;10.10;;;;;;;;;;4992912;28;92655;-75
2022/05/07 04:36:06;;;;;;;16.17;10.23;;;;;;;;;;4996160;28;95645;-75
2022/05/07 04:38:35;;;;;;;12.45;9.75;;;;;;;;;;5017542;28;92903;-75
2022/05/07 04:41:02;;;;;;;12.00;9.77;;;;;;;;;;5010198;28;93980;-75
2022/05/07 04:43:30;;;;;;;14.00;10.45;;;;;;;;;;5014028;28;94614;-75
2022/05/07 04:45:57;;;;;;;14.68;9.77;;;;;;;;;;5012303;28;93454;-75
2022/05/07 04:48:25;;;;;;;15.43;9.65;;;;;;;;;;5014169;28;95233;-75
2022/05/07 04:50:52;;;;;;;15.13;10.07;;;;;;;;;;5011507;28;96433;-75
2022/05/07 04:53:39;;;;;;;13.90;9.00;;;;;;;;;;5003867;28;93372;-75
2022/05/07 04:56:15;;;;;;;10.45;9.32;;;;;;;;;;4993683;28;94853;-75
2022/05/07 04:58:54;;;;;;;14.35;9.82;;;;;;;;;;5013300;28;96104;-75
2022/05/07 05:01:26;;;;;;;16.02;9.45;;;;;;;;;;4995220;28;94111;-75
2022/05/07 05:03:53;;;;;;;15.93;9.95;;;;;;;;;;4993280;28;93148;-75
2022/05/07 05:06:26;;;;;;;17.60;10.30;;;;;;;;;;4992115;28;92844;-74
2022/05/07 05:09:01;;;;;;;12.27;9.43;;;;;;;;;;4994446;28;94388;-73
2022/05/07 05:11:28;;;;;;;18.30;9.98;;;;;;;;;;5012353;28;94068;-74
2022/05/07 05:13:55;;;;;;;11.32;10.13;;;;;;;;;;5011105;28;92736;-74
2022/05/07 05:16:23;;;;;;;11.93;10.60;;;;;;;;;;5011761;28;94855;-76
2022/05/07 05:18:54;;;;;;;14.90;9.27;;;;;;;;;;5012452;28;95285;-74
2022/05/07 05:21:21;;;;;;;15.27;9.15;;;;;;;;;;4998080;28;92757;-74
2022/05/07 05:24:00;;;;;;;14.38;10.10;;;;;;;;;;5004738;28;96248;-76
2022/05/07 05:26:30;;;;;;;13.60;9.10;;;;;;;;;;4999811;28;92499;-76
2022/05/07 05:28:57;;;;;;;14.23;10.13;;;;;;;;;;4998407;28;95080;-76
2022/05/07 05:31:24;;;;;;;10.85;9.73;;;;;;;;;;5010970;28;95542;-76
2022/05/07 05:33:58;;;;;;;15.80;10.77;;;;;;;;;;5015992;28;92148;-76
2022/05/07 05:36:40;;;;;;;20.57;10.23;;;;;;;;;;5013044;28;92556;-77
2022/05/07 05:39:07;;;;;;;11.60;9.82;;;;;;;;;;5001440;28;95613;-75
2022/05/07 05:41:35;;;;;;;13.95;9.43;;;;;;;;;;4994183;28;95463;-76
2022/05/07 05:44:02;;;;;;;18.05;11.48;;;;;;;;;;4995931;28;95741;-76
2022/05/07 05:46:30;;;;;;;13.02;10.20;;;;;;;;;;4998935;28;92992;-76
2022/05/07 05:48:56;;;;;;;20.70;11.07;;;;;;;;;;5014220;28;93760;-76
2022/05/07 05:51:23;;;;;;;19.50;11.23;;;;;;;;;;5016066;28;95904;-76
2022/05/07 05:53:50;;;;;;;25.02;11.80;;;;;;;;;;5000128;28;93662;-76
2022/05/07 05:56:17;;;;;;;17.85;11.85;;;;;;;;;;5011817;28;94538;-76
2022/05/07 05:58:48;;;;;;;14.17;9.23;;;;;;;;;;5011601;28;92524;-73
2022/05/07 06:01:18;;;;;;;14.80;8.68;;;;;;;;;;5009142;28;92755;-73
2022/05/07 06:03:57;;;;;;;17.08;10.50;;;;;;;;;;4998312;28;95435;-73
2022/05/07 06:06:23;;;;;;;14.35;8.57;;;;;;;;;;5024424;28;95040;-72
2022/05/07 06:08:50;;;;;;;13.52;9.35;;;;;;;;;;5004367;28;97357;-73
2022/05/07 06:11:19;;;;;;;19.88;10.15;;;;;;;;;;5020145;28;93269;-72
2022/05/07 06:13:47;;;;;;;20.58;9.43;;;;;;;;;;5012257;28;94768;-73
2022/05/07 06:16:14;;;;;;;20.55;13.80;;;;;;;;;;4995029;28;95495;-72
2022/05/07 06:18:41;;;;;;;25.92;10.45;;;;;;;;;;4994486;28;95276;-73
2022/05/07 06:21:09;;;;;;;18.92;10.23;;;;;;;;;;5028504;28;92524;-73
2022/05/07 06:23:39;;;;;;;21.52;11.18;;;;;;;;;;4993564;28;93986;-73
2022/05/07 06:28:54;;;;;;;21.30;11.77;;;;;;;;;;5001018;28;93879;-73
2022/05/07 06:31:20;;;;;;;21.05;12.27;;;;;;;;;;4996382;28;98414;-73
2022/05/07 06:33:47;;;;;;;24.50;14.10;;;;;;;;;;4992297;28;94570;-73
2022/05/07 06:36:13;;;;;;;21.25;13.00;;;;;;;;;;4996150;28;95158;-72
2022/05/07 06:38:41;;;;;;;34.05;13.27;;;;;;;;;;4993116;28;94315;-72
2022/05/07 06:41:10;;;;;;;26.67;15.18;;;;;;;;;;5007700;28;95213;-74
2022/05/07 06:43:49;;;;;;;25.88;14.50;;;;;;;;;;4996936;28;94162;-75
2022/05/07 06:46:29;;;;;;;27.40;14.63;;;;;;;;;;4997390;28;94285;-75
2022/05/07 06:49:01;;;;;;;22.45;13.88;;;;;;;;;;4992138;28;92967;-72
2022/05/07 06:51:38;;;;;;;26.33;13.70;;;;;;;;;;4990126;28;95531;-73
2022/05/07 06:54:04;;;;;;;21.17;13.70;;;;;;;;;;5004462;28;94037;-72
2022/05/07 06:56:30;;;;;;;21.80;14.18;;;;;;;;;;5008945;28;95651;-72
2022/05/07 06:58:57;;;;;;;27.13;15.63;;;;;;;;;;5024809;28;93262;-72
2022/05/07 07:01:23;;;;;;;21.85;13.00;;;;;;;;;;5031874;28;92488;-73
2022/05/07 07:03:49;;;;;;;23.55;14.60;;;;;;;;;;5011722;28;93629;-72
2022/05/07 07:06:17;;;;;;;25.23;15.18;;;;;;;;;;5010705;28;93409;-75
2022/05/07 07:08:44;;;;;;;25.45;16.55;;;;;;;;;;5020461;28;92781;-74
2022/05/07 07:11:10;;;;;;;30.42;18.17;;;;;;;;;;5019500;28;94006;-76
2022/05/07 07:13:36;;;;;;;25.95;17.52;;;;;;;;;;5011646;28;91758;-75
2022/05/07 07:16:03;;;;;;;28.88;17.27;;;;;;;;;;5012652;28;93582;-75
2022/05/07 07:18:31;;;;;;;31.88;17.58;;;;;;;;;;5011240;28;93182;-75
2022/05/07 07:20:57;;;;;;;27.85;16.75;;;;;;;;;;5010324;28;94882;-76
2022/05/07 07:23:24;;;;;;;28.13;17.20;;;;;;;;;;5011848;28;96983;-76
2022/05/07 07:25:50;;;;;;;28.50;17.67;;;;;;;;;;5011991;28;94344;-76
2022/05/07 07:28:17;;;;;;;27.25;17.35;;;;;;;;;;5011054;28;92692;-76
2022/05/07 07:30:43;;;;;;;27.52;16.73;;;;;;;;;;5011405;28;93894;-76
2022/05/07 07:33:11;;;;;;;25.30;16.88;;;;;;;;;;5014561;28;93596;-75
2022/05/07 07:35:38;;;;;;;30.30;16.92;;;;;;;;;;5011525;28;93883;-76
2022/05/07 07:38:05;;;;;;;28.33;16.25;;;;;;;;;;5011286;28;92459;-76
2022/05/07 07:40:31;;;;;;;27.80;15.50;;;;;;;;;;5013744;28;92958;-76
2022/05/07 07:42:58;;;;;;;26.15;17.17;;;;;;;;;;5015118;28;93909;-76
2022/05/07 07:48:10;;;;;;;27.30;16.65;;;;;;;;;;5013955;28;92474;-76
2022/05/07 07:50:38;;;;;;;19.88;15.07;;;;;;;;;;5014573;28;93671;-77
2022/05/07 07:53:08;;;;;;;33.63;15.45;;;;;;;;;;5018013;28;94514;-77
2022/05/07 07:55:36;;;;;;;21.95;15.13;;;;;;;;;;5014109;28;94026;-76
2022/05/07 07:58:07;;;;;;;18.90;14.77;;;;;;;;;;5014921;28;94507;-77
2022/05/07 08:00:38;;;;;;;20.42;14.45;;;;;;;;;;5014907;28;92593;-77
2022/05/07 08:03:05;;;;;;;;;;;;;;;;;;5015065;28;91816;-77
2022/05/07 08:05:33;;;;;;;19.08;13.77;;;;;;;;;;5015563;28;124595;-76
2022/05/07 08:13:34;;;;;;;20.38;13.75;;;;;;;;;;5014473;28;94194;-76
2022/05/07 08:16:01;;;;;;;18.55;12.55;;;;;;;;;;5017318;28;92531;-76
2022/05/07 08:18:27;;;;;;;23.48;13.65;;;;;;;;;;5014278;28;94082;-76
2022/05/07 08:20:55;;;;;;;16.30;12.38;;;;;;;;;;5014065;28;92489;-76
2022/05/07 08:23:22;;;;;;;19.95;12.73;;;;;;;;;;5013599;28;94280;-76
2022/05/07 08:25:49;;;;;;;14.90;10.77;;;;;;;;;;5014685;28;94214;-76
2022/05/07 08:28:15;;;;;;;15.70;11.52;;;;;;;;;;5015412;28;91710;-76
2022/05/07 08:30:43;;;;;;;20.40;11.77;;;;;;;;;;5013262;28;92552;-77
2022/05/07 08:33:09;;;;;;;19.45;14.45;;;;;;;;;;5014036;28;93228;-77
2022/05/07 08:35:36;;;;;;;21.77;13.57;;;;;;;;;;5012509;28;94901;-77
2022/05/07 08:38:02;;;;;;;21.67;13.30;;;;;;;;;;5016327;28;95576;-76
2022/05/07 08:40:29;;;;;;;20.77;13.73;;;;;;;;;;5014370;28;92840;-77
2022/05/07 08:42:56;;;;;;;17.25;13.38;;;;;;;;;;5014472;28;93857;-74
2022/05/07 08:45:22;;;;;;;15.10;12.80;;;;;;;;;;5013348;28;94291;-74
2022/05/07 08:47:53;;;;;;;14.85;12.30;;;;;;;;;;5014349;28;92488;-74
2022/05/07 08:50:20;;;;;;;17.23;12.82;;;;;;;;;;5013608;28;94077;-74
2022/05/07 08:52:47;;;;;;;13.38;9.98;;;;;;;;;;5013892;28;95703;-74
2022/05/07 08:55:15;;;;;;;14.70;9.80;;;;;;;;;;5013999;28;92505;-76
2022/05/07 08:57:42;;;;;;;11.68;10.45;;;;;;;;;;5013774;28;93047;-77
2022/05/07 09:00:09;;;;;;;11.00;9.60;;;;;;;;;;5015221;28;95896;-77
2022/05/07 09:02:41;;;;;;;12.23;9.52;;;;;;;;;;5014920;28;96238;-77
2022/05/07 09:05:10;;;;;;;11.60;9.40;;;;;;;;;;5013871;28;93121;-77
2022/05/07 09:07:37;;;;;;;10.55;9.10;;;;;;;;;;5014677;28;93604;-77
2022/05/07 09:10:10;;;;;;;15.52;11.95;;;;;;;;;;5014294;28;92435;-77
2022/05/07 09:12:36;;;;;;;17.08;12.60;;;;;;;;;;5012440;28;93703;-77
2022/05/07 09:15:03;;;;;;;12.02;10.75;;;;;;;;;;5013394;28;92496;-76
2022/05/07 09:17:30;;;;;;;17.35;11.88;;;;;;;;;;5013771;28;93369;-77
2022/05/07 09:20:08;;;;;;;19.60;14.02;;;;;;;;;;5013134;28;94154;-74
2022/05/07 09:22:35;;;;;;;18.40;12.77;;;;;;;;;;5016608;28;92916;-74
2022/05/07 09:25:01;;;;;;;16.38;12.13;;;;;;;;;;5011333;28;95925;-77
2022/05/07 09:27:28;;;;;;;18.98;13.25;;;;;;;;;;5011919;28;92667;-77
2022/05/07 09:29:58;;;;;;;17.95;12.43;;;;;;;;;;5012863;28;93088;-77
2022/05/07 09:32:33;;;;;;;16.63;11.93;;;;;;;;;;5012402;28;93329;-77
2022/05/07 09:37:44;;;;;;;13.35;9.68;;;;;;;;;;5013153;28;92923;-77
2022/05/07 09:40:13;;;;;;;11.50;7.95;;;;;;;;;;5012553;28;93692;-77
2022/05/07 09:42:41;;;;;;;6.50;5.90;;;;;;;;;;5015490;28;92396;-77
2022/05/07 09:45:07;;;;;;;7.90;5.90;;;;;;;;;;5018623;28;93588;-76
2022/05/07 09:47:34;;;;;;;5.68;5.07;;;;;;;;;;5014679;28;92793;-76
2022/05/07 09:58:20;;;;;;;7.45;4.88;;;;;;;;;;5013901;28;93775;-73
2022/05/07 10:01:06;;;;;;;10.60;7.45;;;;;;;;;;5013950;28;94434;-74
2022/05/07 10:03:38;;;;;;;12.48;8.63;;;;;;;;;;5012412;28;92900;-74
2022/05/07 10:06:11;;;;;;;13.40;6.78;;;;;;;;;;5016853;28;93992;-74
2022/05/07 10:08:37;;;;;;;11.32;8.60;;;;;;;;;;5013342;28;91769;-73
2022/05/07 10:11:04;;;;;;;10.80;9.25;;;;;;;;;;5013734;28;93223;-74
2022/05/07 10:13:32;;;;;;;11.00;7.68;;;;;;;;;;5013247;28;94224;-74
2022/05/07 10:16:00;;;;;;;9.10;7.28;;;;;;;;;;5011067;28;94870;-74
2022/05/07 10:18:34;;;;;;;7.50;6.65;;;;;;;;;;5013351;28;96185;-74
2022/05/07 10:21:09;;;;;;;11.30;8.25;;;;;;;;;;5013232;28;94257;-77
2022/05/07 10:23:38;;;;;;;11.48;8.23;;;;;;;;;;5013413;28;92439;-77
2022/05/07 10:26:05;;;;;;;10.75;8.40;;;;;;;;;;5013461;28;93976;-77
2022/05/07 10:28:38;;;;;;;14.07;8.23;;;;;;;;;;5015951;28;93896;-76
2022/05/07 10:31:18;;;;;;;9.88;8.05;;;;;;;;;;5012969;28;93910;-77
2022/05/07 10:33:44;;;;;;;10.40;8.13;;;;;;;;;;5013496;28;93418;-77
2022/05/07 10:36:11;;;;;;;14.20;7.25;;;;;;;;;;5012151;28;93660;-76
2022/05/07 10:38:44;;;;;;;16.77;9.55;;;;;;;;;;5013135;28;93891;-76
2022/05/07 10:41:14;;;;;;;16.00;10.30;;;;;;;;;;5011479;28;96581;-76
2022/05/07 10:43:42;;;;;;;16.92;10.40;;;;;;;;;;5011968;28;93960;-76
2022/05/07 10:46:13;;;;;;;10.88;8.85;;;;;;;;;;5012304;28;92904;-76
2022/05/07 10:48:45;;;;;;;16.33;11.07;;;;;;;;;;5012905;28;94087;-76
2022/05/07 10:51:21;;;;;;;20.23;11.15;;;;;;;;;;5015164;28;92865;-76
2022/05/07 10:53:49;;;;;;;23.75;13.95;;;;;;;;;;5012430;28;93166;-76
2022/05/07 10:56:16;;;;;;;19.27;13.90;;;;;;;;;;5012434;28;93109;-76
2022/05/07 10:58:47;;;;;;;24.92;13.98;;;;;;;;;;5011787;28;93969;-76
2022/05/07 11:01:14;;;;;;;15.27;13.13;;;;;;;;;;5012292;28;94190;-76
2022/05/07 11:03:40;;;;;;;19.67;13.18;;;;;;;;;;5012015;28;92643;-76
2022/05/07 11:06:06;;;;;;;17.85;13.15;;;;;;;;;;5010370;28;95281;-76
2022/05/07 11:08:35;;;;;;;22.92;13.90;;;;;;;;;;5011831;28;94591;-76
2022/05/07 11:11:03;;;;;;;21.50;11.82;;;;;;;;;;5012150;28;92476;-76
2022/05/07 11:13:30;;;;;;;15.43;9.77;;;;;;;;;;5013494;28;94240;-76
2022/05/07 11:16:03;;;;;;;13.40;11.02;;;;;;;;;;5012836;28;92556;-76
2022/05/07 11:18:31;;;;;;;17.45;12.48;;;;;;;;;;5011211;28;94032;-76
2022/05/07 11:21:02;;;;;;;26.70;15.75;;;;;;;;;;5012034;28;94481;-75
2022/05/07 11:23:28;;;;;;;23.20;16.63;;;;;;;;;;5011912;28;92005;-76
2022/05/07 11:25:55;;;;;;;22.70;16.33;;;;;;;;;;5011412;28;93193;-75
2022/05/07 11:28:22;;;;;;;23.42;17.02;;;;;;;;;;5011557;28;94231;-75
2022/05/07 11:30:55;;;;;;;21.55;16.83;;;;;;;;;;5009634;28;94832;-75
2022/05/07 11:33:24;;;;;;;22.35;14.85;;;;;;;;;;5010977;28;96389;-75
2022/05/07 11:36:06;;;;;;;23.73;16.48;;;;;;;;;;5014925;28;94138;-75
2022/05/07 11:38:36;;;;;;;25.42;15.70;;;;;;;;;;5011631;28;94022;-75
2022/05/07 11:41:13;;;;;;;24.80;17.13;;;;;;;;;;5010798;28;93215;-75
2022/05/07 11:46:55;;;;;;;22.27;16.05;;;;;;;;;;5010643;28;94145;-75
2022/05/07 11:49:33;;;;;;;22.08;16.77;;;;;;;;;;5011582;28;92514;-76
2022/05/07 11:52:10;;;;;;;18.92;15.32;;;;;;;;;;5011572;28;92505;-75
2022/05/07 11:54:47;;;;;;;23.65;14.45;;;;;;;;;;5010875;28;94113;-75
2022/05/07 11:57:14;;;;;;;22.75;12.55;;;;;;;;;;5009013;28;95881;-75
2022/05/07 11:59:46;;;;;;;21.13;14.88;;;;;;;;;;5014393;28;92430;-75
2022/05/07 12:02:12;;;;;;;20.13;13.85;;;;;;;;;;5010699;28;94254;-76
2022/05/07 12:04:40;;;;;;;19.20;14.38;;;;;;;;;;5010959;28;92487;-75
2022/05/07 12:07:10;;;;;;;23.67;15.10;;;;;;;;;;5010395;28;93212;-75
2022/05/07 12:09:36;;;;;;;23.55;13.20;;;;;;;;;;5011033;28;94076;-75
2022/05/07 12:12:03;;;;;;;17.52;12.52;;;;;;;;;;5011478;28;92436;-74
2022/05/07 12:14:29;;;;;;;15.60;12.68;;;;;;;;;;5010767;28;94639;-75
2022/05/07 12:19:46;;;;;;;18.25;11.93;;;;;;;;;;5014575;28;92967;-75
2022/05/07 12:30:27;;;;;;;15.20;9.20;;;;;;;;;;5013460;28;94183;-75
2022/05/07 12:32:59;;;;;;;11.07;8.23;;;;;;;;;;5015459;28;92682;-74
2022/05/07 12:35:25;;;;;;;11.40;8.18;;;;;;;;;;5015198;28;93994;-75
2022/05/07 12:37:51;;;;;;;10.95;6.78;;;;;;;;;;5014403;28;94848;-75
2022/05/07 12:40:18;;;;;;;11.63;8.57;;;;;;;;;;5015794;28;91736;-75
2022/05/07 12:42:45;;;;;;;9.20;6.28;;;;;;;;;;5017132;28;93233;-75
2022/05/07 12:45:11;;;;;;;10.07;8.63;;;;;;;;;;5015013;28;93705;-74
2022/05/07 12:47:39;;;;;;;15.20;12.35;;;;;;;;;;5013290;28;94880;-74
2022/05/07 12:50:05;;;;;;;12.43;10.27;;;;;;;;;;5013550;28;94525;-75
2022/05/07 12:52:32;;;;;;;11.85;10.13;;;;;;;;;;5014166;28;92488;-75
2022/05/07 12:54:58;;;;;;;13.57;11.27;;;;;;;;;;5014260;28;93608;-75
2022/05/07 12:57:28;;;;;;;12.63;10.45;;;;;;;;;;5013144;28;94161;-74
2022/05/07 12:59:55;;;;;;;13.10;10.23;;;;;;;;;;5013881;28;92951;-75
2022/05/07 13:02:23;;;;;;;12.45;8.43;;;;;;;;;;5013721;28;94210;-75
2022/05/07 13:04:49;;;;;;;10.70;8.63;;;;;;;;;;5017427;28;93364;-75
2022/05/07 13:07:16;;;;;;;12.70;9.90;;;;;;;;;;5014851;28;93901;-75
2022/05/07 13:09:42;;;;;;;9.48;8.57;;;;;;;;;;5013615;28;93295;-75
2022/05/07 13:12:18;;;;;;;11.77;10.07;;;;;;;;;;5012722;28;95364;-75
2022/05/07 13:14:52;;;;;;;13.50;10.10;;;;;;;;;;5013833;28;96545;-75
2022/05/07 13:17:18;;;;;;;14.23;11.43;;;;;;;;;;5013751;28;94409;-75
2022/05/07 13:19:45;;;;;;;14.38;10.98;;;;;;;;;;5013014;28;92705;-75
2022/05/07 13:22:11;;;;;;;15.88;11.18;;;;;;;;;;5013521;28;93985;-75
2022/05/07 13:24:37;;;;;;;14.10;11.43;;;;;;;;;;5013436;28;92967;-75
2022/05/07 13:27:04;;;;;;;11.35;9.32;;;;;;;;;;5016319;28;93092;-75
2022/05/07 13:29:33;;;;;;;16.63;9.95;;;;;;;;;;5014192;28;92698;-75
2022/05/07 13:31:59;;;;;;;15.43;10.70;;;;;;;;;;5013931;28;92494;-74
2022/05/07 13:34:27;;;;;;;12.63;9.75;;;;;;;;;;5013389;28;92866;-75
2022/05/07 13:36:54;;;;;;;14.15;9.90;;;;;;;;;;5011997;28;96647;-75
2022/05/07 13:39:20;;;;;;;10.93;9.90;;;;;;;;;;5013651;28;92530;-75
2022/05/07 13:41:47;;;;;;;10.18;9.35;;;;;;;;;;5014300;28;93712;-74
2022/05/07 13:44:13;;;;;;;12.32;11.07;;;;;;;;;;5013348;28;92429;-74
2022/05/07 13:46:41;;;;;;;12.93;10.60;;;;;;;;;;5012861;28;93192;-74
2022/05/07 13:49:08;;;;;;;14.18;10.02;;;;;;;;;;5016116;28;94571;-74
2022/05/07 13:51:34;;;;;;;16.48;11.73;;;;;;;;;;5013097;28;92478;-74
2022/05/07 13:54:01;;;;;;;16.23;11.80;;;;;;;;;;5012739;28;93249;-74
2022/05/07 13:56:27;;;;;;;16.85;11.18;;;;;;;;;;5012690;28;94067;-74
2022/05/07 13:58:54;;;;;;;12.85;10.90;;;;;;;;;;5013276;28;92484;-74
2022/05/07 14:01:20;;;;;;;15.70;10.93;;;;;;;;;;5010455;28;95287;-74
2022/05/07 14:03:46;;;;;;;15.23;11.52;;;;;;;;;;5012982;28;94358;-74
2022/05/07 14:06:16;;;;;;;14.50;11.02;;;;;;;;;;5013074;28;92599;-75
2022/05/07 14:08:43;;;;;;;14.45;11.48;;;;;;;;;;5015043;28;93919;-74
2022/05/07 14:11:11;;;;;;;13.10;10.65;;;;;;;;;;5012847;28;93595;-75
2022/05/07 14:13:40;;;;;;;18.75;13.68;;;;;;;;;;5012277;28;92428;-74
2022/05/07 14:16:08;;;;;;;16.70;13.18;;;;;;;;;;5011508;28;93450;-75
2022/05/07 14:18:35;;;;;;;13.40;11.95;;;;;;;;;;5012981;28;91896;-75
2022/05/07 14:21:02;;;;;;;13.13;11.27;;;;;;;;;;5011753;28;92531;-75
2022/05/07 14:23:28;;;;;;;14.57;11.13;;;;;;;;;;5011801;28;93460;-74
2022/05/07 14:25:57;;;;;;;13.20;9.68;;;;;;;;;;5011289;28;94928;-74
2022/05/07 14:28:23;;;;;;;9.50;8.60;;;;;;;;;;5012396;28;96520;-74
2022/05/07 14:30:50;;;;;;;6.47;5.78;;;;;;;;;;5016406;28;94542;-75
2022/05/07 14:33:16;;;;;;;9.90;7.38;;;;;;;;;;5013450;28;92974;-74
2022/05/07 14:35:43;;;;;;;7.75;6.15;;;;;;;;;;5012103;28;93535;-74
2022/05/07 14:38:10;;;;;;;6.65;5.85;;;;;;;;;;5014613;28;92573;-74
2022/05/07 14:40:37;;;;;;;12.60;8.95;;;;;;;;;;5013286;28;94374;-74
2022/05/07 14:43:05;;;;;;;10.20;8.18;;;;;;;;;;5013351;28;93587;-75
2022/05/07 14:45:32;;;;;;;9.45;8.50;;;;;;;;;;5012187;28;92529;-74
2022/05/07 14:47:59;;;;;;;10.75;9.25;;;;;;;;;;5012459;28;93622;-74
2022/05/07 14:50:26;;;;;;;9.98;8.02;;;;;;;;;;5009655;28;96510;-74
2022/05/07 14:52:53;;;;;;;7.30;5.95;;;;;;;;;;5016124;28;92454;-74
2022/05/07 14:55:20;;;;;;;6.32;5.78;;;;;;;;;;5012011;28;93267;-74
2022/05/07 14:57:46;;;;;;;6.43;5.45;;;;;;;;;;5012650;28;92999;-74
2022/05/07 15:00:14;;;;;;;7.15;6.45;;;;;;;;;;5012263;28;92513;-74
2022/05/07 15:02:46;;;;;;;7.65;4.85;;;;;;;;;;5012248;28;94529;-75
2022/05/07 15:05:14;;;;;;;10.27;7.50;;;;;;;;;;5012471;28;92541;-74
2022/05/07 15:07:41;;;;;;;9.88;8.07;;;;;;;;;;5013126;28;93939;-74
2022/05/07 15:12:53;;;;;;;9.00;8.10;;;;;;;;;;5012119;28;92449;-74
2022/05/07 15:15:20;;;;;;;10.68;9.57;;;;;;;;;;5013907;28;94832;-74
2022/05/07 15:17:46;;;;;;;12.25;9.85;;;;;;;;;;5012067;28;92537;-74